Monday, December 18, 2017, 5:44 AM EST
Back to Local

KDXR, Danbury Municipal Airport

Location: Danbury, CT, United States Lat: 41.367
Local Time: 5:44 AM EST (10:44 GMT) Lon: -73.483
Time Zone: US/Eastern Elev: 459 ft

Show me the last for .
Show Decoded

2017-12-18 04:53 METAR KDXR 180953Z AUTO 07004KT 5SM -SN OVC017 M02/M07 A3015 RMK AO2 SNE0859B29
                 SLP213 P0000 T10171072 =
2017-12-18 03:53 METAR KDXR 180853Z AUTO 05003KT 8SM -SN OVC016 M02/M08 A3016 RMK AO2 SNB31
                 SLP217 P0000 60000 T10171083 58013 =
2017-12-18 02:53 METAR KDXR 180753Z AUTO 07003KT 10SM OVC016 M01/M09 A3018 RMK AO2 SLP224
                 T10111094 =
2017-12-18 01:53 METAR KDXR 180653Z AUTO 00000KT 10SM OVC016 M01/M09 A3019 RMK AO2 SLP227
                 T10111094 =
2017-12-18 00:53 METAR KDXR 180553Z AUTO 09003KT 10SM OVC017 M02/M09 A3020 RMK AO2 SLP229
                 T10171094 11011 21022 56013 =
2017-12-17 23:53 METAR KDXR 180453Z AUTO 00000KT 10SM OVC017 M02/M09 A3020 RMK AO2 SLP232
                 T10171094 410061083 =
2017-12-17 23:30 METAR KDXR 180430Z AUTO 00000KT 10SM BKN019 M02/M09 A3021 RMK AO2 T10171089 =
2017-12-17 22:53 METAR KDXR 180353Z AUTO 00000KT 10SM FEW120 M02/M09 A3023 RMK AO2 SLP241
                 T10171094 =
2017-12-17 21:53 METAR KDXR 180253Z 00000KT 10SM FEW070 FEW100 SCT110 M02/M11 A3024 RMK AO2
                 SLP244 T10171106 58007 =
2017-12-17 20:53 METAR KDXR 180153Z 00000KT 10SM BKN090 OVC110 M02/M08 A3026 RMK AO2 SLP252
                 T10171083 =
2017-12-17 19:53 METAR KDXR 180053Z 00000KT 10SM BKN120 M02/M07 A3026 RMK AO2 SLP253 T10171067 =
2017-12-17 18:53 METAR KDXR 172353Z 00000KT 10SM BKN110 M02/M08 A3026 RMK AO2 SLP251 T10171083
                 11006 21022 53006 =
2017-12-17 17:53 METAR KDXR 172253Z 00000KT 10SM CLR M02/M08 A3025 RMK AO2 SLP248 T10221078 =
2017-12-17 16:53 METAR KDXR 172153Z 00000KT 10SM FEW050 M01/M09 A3024 RMK AO2 SLP245 T10111094 =
2017-12-17 15:53 METAR KDXR 172053Z 31003KT 10SM CLR M01/M09 A3024 RMK AO2 SLP245 T10061089 55003
                 =
2017-12-17 14:53 METAR KDXR 171953Z 25003KT 10SM OVC055 M01/M08 A3024 RMK AO2 SLP244 T10061083 =
2017-12-17 13:53 METAR KDXR 171853Z 29003KT 10SM OVC050 M01/M08 A3022 RMK AO2 SLP240 T10061083 =
2017-12-17 12:53 METAR KDXR 171753Z 29005KT 10SM BKN030 OVC050 M01/M09 A3025 RMK AO2 SLP249
                 T10111089 11011 21072 58015 =
2017-12-17 12:34 METAR KDXR 171734Z 22005KT 10SM BKN030 OVC050 M01/M08 A3026 RMK AO2 T10111083 =
2017-12-17 12:09 METAR KDXR 171709Z 26004KT 10SM BKN029 BKN042 OVC050 M01/M09 A3027 RMK AO2
                 T10111089 =
2017-12-17 11:53 METAR KDXR 171653Z 27004KT 10SM FEW030 SCT042 BKN055 M01/M08 A3027 RMK AO2
                 SLP256 T10111083 =
2017-12-17 10:53 METAR KDXR 171553Z 07004KT 10SM OVC075 M02/M08 A3028 RMK AO2 SLP260 T10221083 =
2017-12-17 09:53 METAR KDXR 171453Z 00000KT 10SM FEW060 M04/M09 A3030 RMK AO2 SLP264 T10391089
                 51013 =
2017-12-17 08:53 METAR KDXR 171353Z 00000KT 10SM SCT090 M05/M09 A3029 RMK AO2 SLP261 T10501089 =
2017-12-17 07:53 METAR KDXR 171253Z 00000KT 10SM BKN095 M07/M09 A3027 RMK AO2 SLP257 T10671094 =
2017-12-17 06:53 METAR KDXR 171153Z 00000KT 10SM SCT038 M06/M09 A3026 RMK AO2 SLP251 T10611094
                 11050 21083 51002 =
2017-12-17 05:53 METAR KDXR 171053Z AUTO 00000KT 10SM OVC041 M06/M08 A3025 RMK AO2 SLP250
                 T10611083 =

Support USWX by starting your Amazon purchase here.